Time;durP1;ratioP1;P1;durP2;ratioP2;P2;SDS_P1;SDS_P2;PMS_P1;PMS_P2;Temp;Humidity;BMP_temperature;BMP_pressure;BME280_temperature;BME280_humidity;BME280_pressure;Samples;Min_cycle;Max_cycle;Signal;HPM_P1;HPM_P2
2024/02/01 08:36:17;;;;;;;;;;;;;;;;;;880837;23;21523;-90
2024/02/01 08:38:43;;;;;;;142.35;69.13;;;;;;;;;;4938485;29;19919;-92
2024/02/01 08:41:11;;;;;;;120.03;63.10;;;;;;;;;;4924960;29;20162;-92
2024/02/01 08:43:40;;;;;;;129.60;63.67;;;;;;;;;;4917875;29;20036;-92
2024/02/01 08:46:06;;;;;;;120.57;62.28;;;;;;;;;;4939823;29;20130;-92
2024/02/01 08:48:32;;;;;;;117.30;60.45;;;;;;;;;;4932175;29;20411;-91
2024/02/01 08:50:58;;;;;;;121.15;57.58;;;;;;;;;;4924751;29;20059;-93
2024/02/01 08:53:25;;;;;;;120.80;55.10;;;;;;;;;;4925532;29;20355;-93
2024/02/01 08:55:54;;;;;;;115.63;56.47;;;;;;;;;;4922616;29;20028;-93
2024/02/01 08:58:39;;;;;;;99.22;52.88;;;;;;;;;;4922903;29;20028;-93
2024/02/01 09:01:24;;;;;;;99.70;51.85;;;;;;;;;;4933328;29;20059;-93
2024/02/01 09:03:50;;;;;;;86.55;48.10;;;;;;;;;;4937207;29;20028;-93
2024/02/01 09:06:17;;;;;;;96.30;52.28;;;;;;;;;;4930694;29;20354;-92
2024/02/01 09:08:43;;;;;;;91.22;48.72;;;;;;;;;;4940793;29;20036;-94
2024/02/01 09:11:11;;;;;;;117.05;55.60;;;;;;;;;;4929136;29;20024;-92
2024/02/01 09:14:14;;;;;;;137.82;60.13;;;;;;;;;;4911787;29;20024;-89
2024/02/01 09:16:41;;;;;;;83.28;47.15;;;;;;;;;;4921334;29;20032;-95
2024/02/01 09:19:14;;;;;;;75.30;41.67;;;;;;;;;;4916776;29;20058;-93
2024/02/01 09:21:40;;;;;;;67.65;38.78;;;;;;;;;;4924722;29;20122;-95
2024/02/01 09:24:07;;;;;;;68.22;38.78;;;;;;;;;;4940839;29;20024;-94
2024/02/01 09:26:33;;;;;;;71.40;39.72;;;;;;;;;;4911863;29;20027;-94
2024/02/01 09:32:22;;;;;;;74.00;39.17;;;;;;;;;;4941507;29;20035;-95
2024/02/01 09:34:48;;;;;;;80.55;39.75;;;;;;;;;;4941328;29;20032;-93
2024/02/01 09:37:22;;;;;;;68.80;35.83;;;;;;;;;;4916571;29;20088;-93
2024/02/01 09:39:48;;;;;;;72.78;38.53;;;;;;;;;;4922265;29;20036;-93
2024/02/01 09:42:15;;;;;;;71.72;37.90;;;;;;;;;;4932262;29;20064;-94
2024/02/01 09:47:46;;;;;;;68.47;37.72;;;;;;;;;;4923065;29;20027;-95
2024/02/01 09:50:13;;;;;;;69.10;38.90;;;;;;;;;;4939598;29;20019;-94
2024/02/01 09:52:46;;;;;;;71.07;41.58;;;;;;;;;;4923163;29;20028;-93
2024/02/01 09:55:19;;;;;;;71.78;41.42;;;;;;;;;;4922741;29;20435;-94
2024/02/01 09:57:53;;;;;;;69.10;41.40;;;;;;;;;;4928937;29;20027;-93
2024/02/01 10:00:22;;;;;;;66.47;41.22;;;;;;;;;;4920964;29;20028;-94
2024/02/01 10:02:55;;;;;;;82.15;45.10;;;;;;;;;;4921496;29;20330;-94
2024/02/01 10:05:28;;;;;;;77.22;45.33;;;;;;;;;;4923790;29;20070;-94
2024/02/01 10:07:56;;;;;;;83.40;46.95;;;;;;;;;;4923844;29;20031;-92
2024/02/01 10:10:23;;;;;;;83.43;48.25;;;;;;;;;;4923759;29;20028;-92
2024/02/01 10:12:58;;;;;;;94.75;51.40;;;;;;;;;;4940547;29;20031;-92
2024/02/01 10:15:30;;;;;;;94.32;51.63;;;;;;;;;;4940606;29;20064;-92
2024/02/01 10:17:58;;;;;;;89.07;50.97;;;;;;;;;;4940691;29;20032;-91
2024/02/01 10:20:39;;;;;;;92.38;50.40;;;;;;;;;;4940700;29;20076;-93
2024/02/01 10:23:15;;;;;;;86.93;50.43;;;;;;;;;;4923521;29;20031;-90
2024/02/01 10:25:44;;;;;;;84.88;48.22;;;;;;;;;;4923637;29;20692;-92
2024/02/01 10:28:11;;;;;;;91.38;49.75;;;;;;;;;;4943762;29;20079;-92
2024/02/01 10:30:42;;;;;;;81.68;48.53;;;;;;;;;;4943874;29;20032;-90
2024/02/01 10:33:09;;;;;;;79.20;47.22;;;;;;;;;;4943533;29;20066;-93
2024/02/01 10:35:36;;;;;;;77.68;46.03;;;;;;;;;;4943908;29;20403;-91
2024/02/01 10:38:11;;;;;;;74.95;43.92;;;;;;;;;;4943467;29;20051;-92
2024/02/01 10:40:43;;;;;;;83.45;42.10;;;;;;;;;;4927024;29;20035;-94
2024/02/01 10:43:09;;;;;;;82.10;43.13;;;;;;;;;;4943693;29;20027;-95
2024/02/01 10:45:38;;;;;;;71.43;41.92;;;;;;;;;;4927199;29;20078;-92
2024/02/01 10:48:09;;;;;;;110.55;48.88;;;;;;;;;;4943886;29;20024;-94
2024/02/01 10:50:39;;;;;;;88.35;45.85;;;;;;;;;;4944488;29;20044;-94
2024/02/01 10:53:07;;;;;;;82.35;44.78;;;;;;;;;;4944102;29;20027;-94
2024/02/01 10:55:35;;;;;;;93.40;51.03;;;;;;;;;;4944039;29;20039;-95
2024/02/01 10:58:01;;;;;;;123.55;57.08;;;;;;;;;;4944281;29;20051;-94
2024/02/01 11:00:31;;;;;;;129.20;63.47;;;;;;;;;;4927482;29;20024;-93
2024/02/01 11:02:58;;;;;;;85.07;47.88;;;;;;;;;;4927378;29;20035;-94
2024/02/01 11:05:31;;;;;;;80.68;48.00;;;;;;;;;;4924157;29;20027;-95
2024/02/01 11:07:58;;;;;;;87.70;48.65;;;;;;;;;;4937752;29;20367;-94
2024/02/01 11:10:26;;;;;;;94.05;52.17;;;;;;;;;;4931568;29;20115;-94
2024/02/01 11:12:54;;;;;;;86.30;47.60;;;;;;;;;;4920434;29;20063;-92
2024/02/01 11:18:37;;;;;;;80.20;43.40;;;;;;;;;;4921139;29;20036;-93
2024/02/01 11:21:04;;;;;;;87.50;48.25;;;;;;;;;;4906031;29;20119;-94
2024/02/01 11:23:39;;;;;;;77.80;44.17;;;;;;;;;;4907375;29;20032;-94
2024/02/01 11:26:15;;;;;;;78.20;46.38;;;;;;;;;;4907744;29;20079;-95
2024/02/01 11:28:41;;;;;;;71.25;41.72;;;;;;;;;;4907269;29;20047;-93
2024/02/01 11:31:15;;;;;;;82.82;46.05;;;;;;;;;;4926369;29;20330;-92
2024/02/01 11:33:43;;;;;;;113.45;54.80;;;;;;;;;;4942997;29;20363;-93
2024/02/01 11:36:10;;;;;;;114.32;55.10;;;;;;;;;;4942689;29;20046;-92
2024/02/01 11:38:36;;;;;;;87.53;45.15;;;;;;;;;;4941178;29;20051;-94
2024/02/01 11:41:02;;;;;;;71.65;42.60;;;;;;;;;;4924458;29;20036;-92
2024/02/01 11:43:48;;;;;;;93.63;49.95;;;;;;;;;;4919397;29;20039;-92
2024/02/01 11:46:14;;;;;;;99.20;51.70;;;;;;;;;;4907163;29;20028;-90
2024/02/01 11:48:42;;;;;;;79.65;43.28;;;;;;;;;;4923976;29;20028;-89
2024/02/01 11:51:09;;;;;;;70.20;40.35;;;;;;;;;;4925501;29;20063;-91
2024/02/01 11:53:36;;;;;;;69.07;41.10;;;;;;;;;;4923923;29;20028;-90
2024/02/01 11:56:05;;;;;;;70.65;42.47;;;;;;;;;;4907062;29;20032;-90
2024/02/01 11:58:34;;;;;;;73.63;41.67;;;;;;;;;;4923519;29;20024;-90
2024/02/01 12:01:01;;;;;;;71.32;41.20;;;;;;;;;;4926082;29;20095;-90
2024/02/01 12:03:32;;;;;;;79.07;40.97;;;;;;;;;;4923671;29;20027;-90
2024/02/01 12:05:59;;;;;;;67.78;38.13;;;;;;;;;;4906772;29;20025;-90
2024/02/01 12:08:26;;;;;;;65.10;38.00;;;;;;;;;;4906992;29;20025;-89
2024/02/01 12:10:52;;;;;;;60.80;35.80;;;;;;;;;;4932948;29;20035;-89
2024/02/01 12:13:19;;;;;;;78.70;42.30;;;;;;;;;;4928626;29;20028;-89
2024/02/01 12:15:46;;;;;;;86.63;47.17;;;;;;;;;;4924564;29;20040;-89
2024/02/01 12:18:12;;;;;;;71.65;43.38;;;;;;;;;;4906025;29;20032;-90
2024/02/01 12:20:42;;;;;;;68.72;38.05;;;;;;;;;;4909111;29;20339;-90
2024/02/01 12:23:08;;;;;;;69.85;37.97;;;;;;;;;;4923255;29;20024;-89
2024/02/01 12:25:34;;;;;;;69.78;39.00;;;;;;;;;;4923098;29;20311;-87
2024/02/01 12:28:00;;;;;;;70.03;38.95;;;;;;;;;;4906482;29;20028;-87
2024/02/01 12:30:27;;;;;;;68.47;40.65;;;;;;;;;;4909504;29;20032;-89
2024/02/01 12:32:53;;;;;;;67.63;38.45;;;;;;;;;;4927166;29;20024;-88
2024/02/01 12:35:19;;;;;;;75.72;42.83;;;;;;;;;;4939664;29;20031;-88
2024/02/01 12:37:46;;;;;;;60.33;38.10;;;;;;;;;;4921017;29;20067;-87
2024/02/01 12:40:13;;;;;;;64.45;38.40;;;;;;;;;;4922954;29;20029;-88
2024/02/01 12:42:41;;;;;;;65.72;39.08;;;;;;;;;;4922990;29;20441;-88
2024/02/01 12:45:07;;;;;;;68.75;39.72;;;;;;;;;;4925702;29;20032;-88
2024/02/01 12:47:37;;;;;;;69.72;40.85;;;;;;;;;;4910902;29;20023;-88
2024/02/01 12:50:07;;;;;;;72.28;43.45;;;;;;;;;;4941564;29;20047;-88
2024/02/01 12:52:36;;;;;;;73.57;43.42;;;;;;;;;;4907272;29;20035;-88
2024/02/01 12:55:02;;;;;;;73.80;43.05;;;;;;;;;;4905580;29;20055;-88
2024/02/01 12:57:28;;;;;;;75.30;41.00;;;;;;;;;;4919629;29;20040;-88
2024/02/01 12:59:58;;;;;;;68.00;40.85;;;;;;;;;;4924590;29;20028;-88
2024/02/01 13:02:24;;;;;;;71.80;42.17;;;;;;;;;;4924243;29;20136;-88
2024/02/01 13:04:51;;;;;;;67.88;41.83;;;;;;;;;;4924618;29;20036;-88
2024/02/01 13:07:17;;;;;;;76.53;44.55;;;;;;;;;;4924060;29;20079;-88
2024/02/01 13:09:44;;;;;;;79.88;44.67;;;;;;;;;;4941090;29;20042;-88
2024/02/01 13:12:19;;;;;;;63.08;39.45;;;;;;;;;;4923704;29;20071;-88
2024/02/01 13:14:57;;;;;;;72.72;42.53;;;;;;;;;;4941231;29;20410;-88
2024/02/01 13:17:23;;;;;;;115.80;64.55;;;;;;;;;;4941199;29;20032;-88
2024/02/01 13:19:50;;;;;;;81.47;47.83;;;;;;;;;;4924268;29;20031;-88
2024/02/01 13:22:16;;;;;;;59.75;36.28;;;;;;;;;;4935486;29;20115;-88
2024/02/01 13:24:45;;;;;;;52.30;33.90;;;;;;;;;;4916747;29;20091;-87
2024/02/01 13:27:11;;;;;;;70.88;41.97;;;;;;;;;;4923147;29;20028;-88
2024/02/01 13:29:37;;;;;;;66.78;40.22;;;;;;;;;;4912687;29;20479;-89
2024/02/01 13:32:08;;;;;;;60.03;37.53;;;;;;;;;;4924210;29;20036;-86
2024/02/01 13:34:38;;;;;;;64.30;40.03;;;;;;;;;;4924147;29;20047;-86
2024/02/01 13:37:07;;;;;;;67.32;40.53;;;;;;;;;;4929893;29;20088;-87
2024/02/01 13:39:34;;;;;;;67.22;40.72;;;;;;;;;;4922895;29;20028;-90
2024/02/01 13:42:03;;;;;;;67.22;39.30;;;;;;;;;;4909704;29;20040;-88
2024/02/01 13:47:54;;;;;;;56.63;35.25;;;;;;;;;;4924267;29;20486;-89
2024/02/01 13:50:24;;;;;;;66.82;34.92;;;;;;;;;;4906137;29;20068;-88
2024/02/01 13:52:51;;;;;;;61.78;34.70;;;;;;;;;;4905886;29;20042;-84
2024/02/01 13:55:17;;;;;;;60.63;34.40;;;;;;;;;;4939735;29;20047;-86
2024/02/01 13:57:43;;;;;;;51.85;31.10;;;;;;;;;;4923767;29;20036;-86
2024/02/01 14:00:15;;;;;;;59.08;34.75;;;;;;;;;;4923524;29;20050;-86
2024/02/01 14:02:43;;;;;;;56.10;33.30;;;;;;;;;;4923430;29;20031;-85
2024/02/01 14:05:11;;;;;;;56.08;31.08;;;;;;;;;;4940269;29;20123;-85
2024/02/01 14:07:43;;;;;;;48.17;27.55;;;;;;;;;;4940237;29;20020;-85
2024/02/01 14:10:10;;;;;;;45.20;27.95;;;;;;;;;;4923409;29;20040;-86
2024/02/01 14:12:37;;;;;;;38.78;26.23;;;;;;;;;;4940270;29;20035;-85
2024/02/01 14:15:07;;;;;;;43.17;26.30;;;;;;;;;;4930892;29;20052;-87
2024/02/01 14:17:33;;;;;;;40.22;26.10;;;;;;;;;;4921646;29;20032;-86
2024/02/01 14:20:00;;;;;;;41.67;25.92;;;;;;;;;;4904541;29;20042;-86
2024/02/01 14:22:28;;;;;;;40.50;25.30;;;;;;;;;;4904350;29;20056;-86
2024/02/01 14:24:55;;;;;;;44.80;24.33;;;;;;;;;;4924708;29;20027;-87
2024/02/01 14:27:21;;;;;;;43.05;23.60;;;;;;;;;;4926127;29;20028;-86
2024/02/01 14:29:48;;;;;;;41.70;25.10;;;;;;;;;;4934462;29;20055;-85
2024/02/01 14:32:14;;;;;;;42.15;26.88;;;;;;;;;;4923480;29;20079;-88
2024/02/01 14:34:41;;;;;;;62.00;32.97;;;;;;;;;;4924312;29;20028;-86
2024/02/01 14:37:11;;;;;;;66.15;34.53;;;;;;;;;;4910030;29;20043;-92
2024/02/01 14:39:37;;;;;;;55.13;31.83;;;;;;;;;;4904463;29;20040;-92
2024/02/01 14:42:03;;;;;;;51.03;32.25;;;;;;;;;;4904504;29;20031;-90
2024/02/01 14:47:51;;;;;;;75.55;42.58;;;;;;;;;;4921050;29;20027;-91
2024/02/01 14:50:19;;;;;;;75.10;39.28;;;;;;;;;;4904411;29;20024;-93
2024/02/01 14:52:46;;;;;;;67.07;41.00;;;;;;;;;;4916235;29;20063;-91
2024/02/01 14:55:12;;;;;;;87.35;47.63;;;;;;;;;;4954809;28;20299;-89
2024/02/01 14:57:39;;;;;;;87.60;50.63;;;;;;;;;;4934802;29;20087;-90
2024/02/01 15:00:08;;;;;;;77.30;45.45;;;;;;;;;;4908153;29;20103;-91
2024/02/01 15:02:35;;;;;;;71.25;41.40;;;;;;;;;;4924700;29;20156;-90
2024/02/01 15:05:01;;;;;;;74.53;44.13;;;;;;;;;;4924897;29;20024;-89
2024/02/01 15:07:27;;;;;;;74.78;46.60;;;;;;;;;;4909609;29;20120;-90
2024/02/01 15:09:56;;;;;;;72.10;42.90;;;;;;;;;;4943822;29;20028;-90
2024/02/01 15:12:23;;;;;;;82.60;47.72;;;;;;;;;;4924878;29;20032;-93
2024/02/01 15:14:53;;;;;;;108.22;57.08;;;;;;;;;;4908601;29;20024;-92
2024/02/01 15:17:19;;;;;;;296.55;114.47;;;;;;;;;;4908298;29;20032;-92
2024/02/01 15:19:45;;;;;;;189.88;77.82;;;;;;;;;;4926407;29;20078;-90
2024/02/01 15:22:12;;;;;;;116.32;53.97;;;;;;;;;;4926675;29;20119;-93
2024/02/01 15:24:39;;;;;;;83.10;45.65;;;;;;;;;;4972791;23;20057;-91
2024/02/01 15:27:06;;;;;;;72.63;40.10;;;;;;;;;;4964930;28;20042;-92
2024/02/01 15:29:33;;;;;;;82.50;44.08;;;;;;;;;;4961470;28;20086;-92
2024/02/01 15:31:59;;;;;;;90.30;46.92;;;;;;;;;;4945682;29;20090;-92
2024/02/01 15:34:25;;;;;;;91.13;51.13;;;;;;;;;;4945452;29;20034;-91
2024/02/01 15:36:51;;;;;;;92.07;53.75;;;;;;;;;;4945252;29;20118;-92
2024/02/01 15:39:18;;;;;;;90.35;54.65;;;;;;;;;;4961941;28;20394;-84
2024/02/01 15:41:44;;;;;;;84.30;53.60;;;;;;;;;;4987487;28;20061;-85
2024/02/01 15:44:11;;;;;;;94.38;54.55;;;;;;;;;;4972638;28;20110;-86
2024/02/01 15:46:38;;;;;;;93.43;53.13;;;;;;;;;;4988695;28;20033;-85
2024/02/01 15:49:06;;;;;;;92.95;54.00;;;;;;;;;;4969359;28;20148;-84
2024/02/01 15:51:33;;;;;;;88.57;52.58;;;;;;;;;;4950375;28;20038;-84
2024/02/01 15:53:59;;;;;;;102.15;55.55;;;;;;;;;;4965824;28;20118;-84
2024/02/01 15:56:25;;;;;;;106.10;57.83;;;;;;;;;;4944564;29;20063;-84
2024/02/01 15:58:51;;;;;;;98.63;54.97;;;;;;;;;;4961153;29;20031;-84
2024/02/01 16:01:17;;;;;;;115.63;59.03;;;;;;;;;;4975160;28;20035;-84
2024/02/01 16:03:43;;;;;;;106.25;58.75;;;;;;;;;;4961658;28;20018;-84
2024/02/01 16:06:16;;;;;;;114.00;59.60;;;;;;;;;;4960520;28;20038;-85
2024/02/01 16:08:43;;;;;;;126.30;69.25;;;;;;;;;;4961292;28;20414;-85
2024/02/01 16:11:11;;;;;;;167.88;82.20;;;;;;;;;;4958024;28;20082;-85
2024/02/01 16:13:38;;;;;;;139.57;74.13;;;;;;;;;;4962868;28;20041;-90
2024/02/01 16:16:04;;;;;;;137.30;74.97;;;;;;;;;;4980850;28;20122;-86
2024/02/01 16:18:35;;;;;;;135.07;71.20;;;;;;;;;;4963231;28;20026;-85
2024/02/01 16:21:01;;;;;;;142.05;74.53;;;;;;;;;;4963466;28;20372;-85
2024/02/01 16:23:29;;;;;;;150.68;73.63;;;;;;;;;;4969568;28;20050;-87
2024/02/01 16:25:55;;;;;;;145.60;74.72;;;;;;;;;;4961386;29;20039;-86
2024/02/01 16:28:36;;;;;;;167.20;81.80;;;;;;;;;;4944276;29;20050;-86
2024/02/01 16:31:02;;;;;;;160.10;83.57;;;;;;;;;;4929957;29;20035;-86
2024/02/01 16:33:43;;;;;;;210.30;104.60;;;;;;;;;;4939606;29;20422;-86
2024/02/01 16:36:09;;;;;;;260.05;132.50;;;;;;;;;;4941803;29;20038;-86
2024/02/01 16:38:43;;;;;;;285.23;142.20;;;;;;;;;;4943255;29;20028;-85
2024/02/01 16:41:31;;;;;;;319.52;154.00;;;;;;;;;;4944121;29;20058;-86
2024/02/01 16:43:58;;;;;;;314.20;152.80;;;;;;;;;;4946597;29;20075;-86
2024/02/01 16:46:37;;;;;;;307.92;148.80;;;;;;;;;;4942018;29;20091;-86
2024/02/01 16:49:06;;;;;;;303.00;153.02;;;;;;;;;;4924843;29;20040;-86
2024/02/01 16:51:32;;;;;;;306.83;154.68;;;;;;;;;;4940243;29;20043;-86
2024/02/01 16:53:58;;;;;;;293.75;145.38;;;;;;;;;;4960655;29;20035;-86
2024/02/01 16:56:24;;;;;;;284.73;145.20;;;;;;;;;;4960274;29;20039;-86
2024/02/01 16:58:55;;;;;;;290.70;142.45;;;;;;;;;;4960651;29;20440;-86
2024/02/01 17:01:21;;;;;;;289.60;142.27;;;;;;;;;;4953288;29;20032;-86
2024/02/01 17:03:47;;;;;;;262.80;138.35;;;;;;;;;;4941507;29;20036;-87
2024/02/01 17:06:13;;;;;;;271.95;138.75;;;;;;;;;;4924476;29;20048;-87
2024/02/01 17:08:47;;;;;;;268.85;137.68;;;;;;;;;;4924484;29;20422;-86
2024/02/01 17:11:20;;;;;;;269.70;136.02;;;;;;;;;;4945280;29;20027;-86
2024/02/01 17:13:46;;;;;;;263.67;139.65;;;;;;;;;;4953863;29;20023;-87
2024/02/01 17:16:32;;;;;;;348.95;171.15;;;;;;;;;;4941155;29;20056;-87
2024/02/01 17:18:58;;;;;;;539.33;268.33;;;;;;;;;;4863474;29;20042;-87
2024/02/01 17:21:26;;;;;;;537.95;270.15;;;;;;;;;;4864472;29;20048;-87
2024/02/01 17:23:53;;;;;;;535.90;274.85;;;;;;;;;;4865256;29;20421;-86
2024/02/01 17:26:20;;;;;;;469.83;238.88;;;;;;;;;;4866229;29;20041;-88
2024/02/01 17:28:46;;;;;;;443.20;227.32;;;;;;;;;;4865370;29;20439;-87
2024/02/01 17:31:33;;;;;;;489.65;252.55;;;;;;;;;;4882248;29;20048;-87
2024/02/01 17:34:00;;;;;;;545.47;290.42;;;;;;;;;;4881803;29;20041;-88
2024/02/01 17:36:34;;;;;;;574.40;301.30;;;;;;;;;;4882675;29;20041;-87
2024/02/01 17:39:02;;;;;;;658.17;342.35;;;;;;;;;;4879954;29;20041;-86
2024/02/01 17:41:31;;;;;;;608.50;315.98;;;;;;;;;;4866622;29;20321;-86
2024/02/01 17:43:57;;;;;;;539.30;282.98;;;;;;;;;;4870110;29;20025;-85
2024/02/01 17:46:32;;;;;;;534.85;283.05;;;;;;;;;;4852995;29;20074;-84
2024/02/01 17:48:59;;;;;;;517.42;271.75;;;;;;;;;;4863556;29;20041;-85
2024/02/01 17:51:26;;;;;;;503.05;267.35;;;;;;;;;;4833417;29;20033;-85
2024/02/01 17:53:54;;;;;;;483.98;253.07;;;;;;;;;;4863634;29;20029;-85
2024/02/01 17:56:22;;;;;;;554.05;299.92;;;;;;;;;;4912310;29;20040;-88
2024/02/01 17:58:48;;;;;;;534.42;292.88;;;;;;;;;;4940400;29;20415;-85
2024/02/01 18:01:18;;;;;;;528.75;285.02;;;;;;;;;;4923436;29;20044;-86
2024/02/01 18:03:47;;;;;;;509.80;278.45;;;;;;;;;;4940348;29;20028;-86
2024/02/01 18:06:18;;;;;;;507.40;274.73;;;;;;;;;;4923188;29;20034;-86
2024/02/01 18:08:44;;;;;;;516.23;283.03;;;;;;;;;;4940488;29;20031;-86
2024/02/01 18:11:14;;;;;;;525.70;285.48;;;;;;;;;;4923398;29;20032;-86
2024/02/01 18:13:40;;;;;;;533.05;291.13;;;;;;;;;;4940298;29;20027;-86
2024/02/01 18:16:07;;;;;;;534.85;290.85;;;;;;;;;;4923386;29;20028;-86
2024/02/01 18:18:35;;;;;;;522.50;292.05;;;;;;;;;;4940203;29;20055;-86
2024/02/01 18:21:05;;;;;;;524.50;289.20;;;;;;;;;;4939947;29;20406;-86
2024/02/01 18:23:38;;;;;;;517.75;285.38;;;;;;;;;;4939901;29;20055;-86
2024/02/01 18:26:08;;;;;;;528.75;288.60;;;;;;;;;;4940221;29;20032;-86
2024/02/01 18:28:39;;;;;;;515.10;288.98;;;;;;;;;;4923352;29;20104;-86
2024/02/01 18:31:08;;;;;;;526.45;291.70;;;;;;;;;;4927495;29;20071;-86
2024/02/01 18:33:35;;;;;;;537.40;302.35;;;;;;;;;;4948307;29;20028;-85
2024/02/01 18:36:08;;;;;;;566.95;321.70;;;;;;;;;;4932464;29;20040;-86
2024/02/01 18:38:34;;;;;;;570.90;329.98;;;;;;;;;;4950071;29;20429;-86
2024/02/01 18:41:00;;;;;;;551.13;319.25;;;;;;;;;;4950020;29;20035;-86
2024/02/01 18:43:28;;;;;;;548.88;314.10;;;;;;;;;;4944837;29;20048;-86
2024/02/01 18:46:04;;;;;;;499.52;282.90;;;;;;;;;;4947502;29;20031;-86
2024/02/01 18:48:35;;;;;;;474.00;249.10;;;;;;;;;;4963093;29;20019;-86
2024/02/01 18:51:06;;;;;;;452.17;226.25;;;;;;;;;;4962926;28;20031;-86
2024/02/01 18:53:42;;;;;;;333.60;164.02;;;;;;;;;;4962848;29;20043;-86
2024/02/01 18:56:28;;;;;;;333.73;169.80;;;;;;;;;;4963172;29;20031;-94
2024/02/01 18:58:55;;;;;;;290.88;144.10;;;;;;;;;;4962925;28;20035;-93
2024/02/01 19:01:22;;;;;;;244.88;131.27;;;;;;;;;;4963608;29;20024;-92
2024/02/01 19:04:05;;;;;;;189.98;106.47;;;;;;;;;;4946313;29;20121;-92
2024/02/01 19:06:31;;;;;;;170.98;94.40;;;;;;;;;;4952421;29;20155;-91
2024/02/01 19:08:58;;;;;;;157.55;88.95;;;;;;;;;;4927231;29;20028;-93
2024/02/01 19:11:25;;;;;;;160.07;82.90;;;;;;;;;;4927042;29;20043;-93
2024/02/01 19:14:15;;;;;;;169.55;80.80;;;;;;;;;;4941822;29;20436;-92
2024/02/01 19:16:43;;;;;;;195.40;82.70;;;;;;;;;;4962759;29;20038;-93
2024/02/01 19:19:09;;;;;;;190.77;82.18;;;;;;;;;;4945645;29;20066;-93
2024/02/01 19:21:36;;;;;;;163.02;77.47;;;;;;;;;;4932405;29;20401;-93
2024/02/01 19:24:05;;;;;;;201.63;94.32;;;;;;;;;;4927987;29;20048;-91
2024/02/01 19:26:32;;;;;;;173.90;85.78;;;;;;;;;;4952057;29;20024;-92
2024/02/01 19:29:00;;;;;;;194.35;91.03;;;;;;;;;;4962265;28;20035;-92
2024/02/01 19:31:27;;;;;;;175.02;86.70;;;;;;;;;;4961949;29;20366;-92
2024/02/01 19:34:00;;;;;;;176.18;89.78;;;;;;;;;;4945656;29;20038;-92
2024/02/01 19:36:39;;;;;;;178.70;90.78;;;;;;;;;;4949773;28;20374;-92
2024/02/01 19:39:08;;;;;;;187.30;89.72;;;;;;;;;;4943327;29;20020;-93
2024/02/01 19:41:34;;;;;;;173.30;90.07;;;;;;;;;;4942219;29;20083;-93
2024/02/01 19:44:05;;;;;;;181.02;94.55;;;;;;;;;;4958382;29;20114;-94
2024/02/01 19:46:31;;;;;;;184.85;94.03;;;;;;;;;;4946061;29;20028;-93
2024/02/01 19:48:57;;;;;;;164.35;87.75;;;;;;;;;;4962661;29;20028;-94
2024/02/01 19:51:23;;;;;;;172.23;90.18;;;;;;;;;;4944862;29;20039;-89
2024/02/01 19:53:49;;;;;;;172.82;89.97;;;;;;;;;;4936407;29;20039;-89
2024/02/01 19:56:15;;;;;;;223.68;114.53;;;;;;;;;;4944868;29;20038;-89
2024/02/01 19:58:41;;;;;;;150.88;86.28;;;;;;;;;;4961963;28;20019;-88
2024/02/01 20:01:07;;;;;;;140.80;84.75;;;;;;;;;;4945016;29;20027;-89
2024/02/01 20:03:33;;;;;;;136.85;79.63;;;;;;;;;;4944842;29;20027;-89
2024/02/01 20:06:01;;;;;;;122.53;74.85;;;;;;;;;;4961948;28;20031;-89
2024/02/01 20:08:27;;;;;;;136.57;79.63;;;;;;;;;;4961699;29;20058;-89
2024/02/01 20:10:54;;;;;;;134.18;78.63;;;;;;;;;;4944745;29;20337;-89
2024/02/01 20:13:20;;;;;;;134.02;78.95;;;;;;;;;;4944514;29;20031;-89
2024/02/01 20:15:46;;;;;;;130.95;76.10;;;;;;;;;;4944648;29;20406;-89
2024/02/01 20:18:16;;;;;;;128.10;76.60;;;;;;;;;;4961493;28;20429;-89
2024/02/01 20:20:44;;;;;;;130.60;76.25;;;;;;;;;;4944403;29;20035;-88
2024/02/01 20:23:11;;;;;;;131.57;75.47;;;;;;;;;;4961298;28;20051;-89
2024/02/01 20:25:37;;;;;;;131.38;75.50;;;;;;;;;;4944092;29;20069;-89
2024/02/01 20:28:03;;;;;;;140.80;77.18;;;;;;;;;;4944555;29;20028;-88
2024/02/01 20:30:30;;;;;;;127.57;73.45;;;;;;;;;;4944305;29;20028;-89
2024/02/01 20:32:57;;;;;;;131.65;74.90;;;;;;;;;;4944207;29;20070;-89
2024/02/01 20:35:24;;;;;;;113.15;69.57;;;;;;;;;;4961011;28;20043;-89
2024/02/01 20:38:00;;;;;;;122.43;70.68;;;;;;;;;;4961000;29;20023;-88
2024/02/01 20:40:34;;;;;;;116.88;72.13;;;;;;;;;;4944262;29;20354;-90
2024/02/01 20:43:00;;;;;;;140.98;83.35;;;;;;;;;;4960686;29;20110;-88
2024/02/01 20:45:26;;;;;;;147.48;85.97;;;;;;;;;;4960651;28;20059;-87
2024/02/01 20:47:52;;;;;;;135.85;79.10;;;;;;;;;;4943785;29;20073;-88
2024/02/01 20:50:35;;;;;;;120.32;71.50;;;;;;;;;;4961109;29;20318;-87
2024/02/01 20:53:01;;;;;;;;;;;;;;;;;;4944056;29;20330;-87
2024/02/01 20:55:27;;;;;;;108.55;65.88;;;;;;;;;;4944003;29;19913;-88
2024/02/01 20:58:03;;;;;;;108.95;64.65;;;;;;;;;;4943749;29;20043;-88
2024/02/01 21:00:30;;;;;;;100.57;61.80;;;;;;;;;;4943592;28;20078;-88
2024/02/01 21:02:56;;;;;;;102.05;63.58;;;;;;;;;;4960701;28;20023;-88
2024/02/01 21:05:36;;;;;;;101.00;59.92;;;;;;;;;;4957058;28;20119;-88
2024/02/01 21:08:02;;;;;;;89.90;57.38;;;;;;;;;;4952067;28;20031;-88
2024/02/01 21:10:58;;;;;;;96.05;57.28;;;;;;;;;;4957872;29;20023;-89
2024/02/01 21:13:27;;;;;;;100.35;60.10;;;;;;;;;;4867386;29;20305;-88
2024/02/01 21:15:59;;;;;;;97.22;58.63;;;;;;;;;;4883553;29;20043;-94
2024/02/01 21:18:25;;;;;;;89.82;55.30;;;;;;;;;;4882975;29;20037;-94
2024/02/01 21:20:52;;;;;;;93.60;56.55;;;;;;;;;;4867102;29;20120;-95
2024/02/01 21:23:36;;;;;;;91.10;55.05;;;;;;;;;;4867077;29;20033;-91
2024/02/01 21:26:02;;;;;;;96.43;54.08;;;;;;;;;;4866138;29;20049;-93
2024/02/01 21:28:28;;;;;;;93.10;53.83;;;;;;;;;;4873150;29;20029;-91
2024/02/01 21:30:54;;;;;;;85.82;52.33;;;;;;;;;;4864902;29;20039;-92
2024/02/01 21:33:20;;;;;;;88.53;51.63;;;;;;;;;;4864055;29;20116;-92
2024/02/01 21:35:56;;;;;;;84.70;49.58;;;;;;;;;;4881793;29;20029;-92
2024/02/01 21:38:26;;;;;;;84.70;48.40;;;;;;;;;;4882703;29;20026;-92
2024/02/01 21:40:52;;;;;;;83.43;49.25;;;;;;;;;;4865187;29;20037;-92
2024/02/01 21:43:19;;;;;;;84.35;50.13;;;;;;;;;;4848731;29;20061;-92
2024/02/01 21:45:46;;;;;;;73.47;46.47;;;;;;;;;;4848540;29;20025;-91
2024/02/01 21:48:13;;;;;;;79.32;49.75;;;;;;;;;;4848509;29;20045;-91
2024/02/01 21:50:39;;;;;;;74.75;47.00;;;;;;;;;;4945632;29;20418;-91
2024/02/01 21:53:05;;;;;;;73.95;46.20;;;;;;;;;;4943046;29;20500;-91
2024/02/01 21:55:34;;;;;;;68.75;43.45;;;;;;;;;;4942628;29;20058;-92
2024/02/01 21:58:03;;;;;;;66.40;43.72;;;;;;;;;;4955496;29;20028;-91
2024/02/01 22:03:36;;;;;;;66.10;42.58;;;;;;;;;;4940325;29;20478;-92
2024/02/01 22:06:02;;;;;;;68.38;44.75;;;;;;;;;;4923513;29;20126;-91
2024/02/01 22:08:28;;;;;;;74.47;46.13;;;;;;;;;;4940791;29;20027;-91
2024/02/01 22:10:54;;;;;;;76.72;46.58;;;;;;;;;;4923711;29;20038;-91
2024/02/01 22:13:21;;;;;;;74.70;48.08;;;;;;;;;;4923642;29;20031;-89
2024/02/01 22:16:24;;;;;;;79.13;47.72;;;;;;;;;;4923715;29;20039;-90
2024/02/01 22:19:04;;;;;;;86.43;48.60;;;;;;;;;;4939733;29;20051;-90
2024/02/01 22:21:30;;;;;;;84.93;51.70;;;;;;;;;;4940050;29;20124;-90
2024/02/01 22:23:56;;;;;;;88.88;52.22;;;;;;;;;;4923121;29;20047;-91
2024/02/01 22:26:22;;;;;;;89.90;54.60;;;;;;;;;;4923646;29;20032;-91
2024/02/01 22:28:48;;;;;;;91.10;54.65;;;;;;;;;;4940089;29;20019;-91
2024/02/01 22:34:17;;;;;;;96.18;57.33;;;;;;;;;;4940296;29;20079;-90
2024/02/01 22:36:44;;;;;;;92.70;54.75;;;;;;;;;;4940173;29;20411;-91
2024/02/01 22:39:16;;;;;;;84.53;53.45;;;;;;;;;;4951672;29;20116;-91
2024/02/01 22:41:44;;;;;;;92.97;53.45;;;;;;;;;;4942208;29;20078;-92
2024/02/01 22:44:10;;;;;;;84.38;53.80;;;;;;;;;;4959584;28;20034;-92
2024/02/01 22:49:53;;;;;;;75.93;48.90;;;;;;;;;;4959164;29;20078;-92
2024/02/01 22:52:19;;;;;;;71.40;45.72;;;;;;;;;;4959341;29;20078;-92
2024/02/01 22:54:45;;;;;;;77.53;47.88;;;;;;;;;;4942307;29;20032;-91
2024/02/01 22:57:11;;;;;;;78.28;47.15;;;;;;;;;;4942256;29;20027;-92
2024/02/01 22:59:37;;;;;;;70.60;45.08;;;;;;;;;;4941934;29;20031;-93
2024/02/01 23:02:13;;;;;;;71.68;45.95;;;;;;;;;;4959388;29;20039;-92
2024/02/01 23:04:39;;;;;;;73.60;46.42;;;;;;;;;;4959216;29;20042;-93
2024/02/01 23:07:05;;;;;;;77.57;45.17;;;;;;;;;;4959051;29;20406;-92
2024/02/01 23:09:31;;;;;;;74.43;44.67;;;;;;;;;;4940944;29;20019;-91
2024/02/01 23:11:57;;;;;;;69.15;43.70;;;;;;;;;;4942197;29;20082;-92
2024/02/01 23:14:23;;;;;;;70.82;42.00;;;;;;;;;;4959237;29;20069;-91
2024/02/01 23:16:49;;;;;;;67.47;42.45;;;;;;;;;;4945466;29;20054;-92
2024/02/01 23:19:16;;;;;;;67.07;39.78;;;;;;;;;;4951482;28;20043;-92
2024/02/01 23:21:42;;;;;;;63.88;38.17;;;;;;;;;;4926902;29;20032;-92